Time;durP1;ratioP1;P1;durP2;ratioP2;P2;SDS_P1;SDS_P2;PMS_P1;PMS_P2;Temp;Humidity;BMP_temperature;BMP_pressure;BME280_temperature;BME280_humidity;BME280_pressure;Samples;Min_cycle;Max_cycle;Signal;HPM_P1;HPM_P2
2021/08/08 00:00:06;;;;;;;2.62;2.42;;;;;;;25.48;50.93;99611.23;1697449;83;21722;-65
2021/08/08 00:02:37;;;;;;;2.95;2.17;;;;;;;25.49;50.93;99613.41;1698147;83;21056;-64
2021/08/08 00:05:07;;;;;;;3.37;2.42;;;;;;;25.49;50.89;99607.97;1690530;83;21154;-65
2021/08/08 00:07:34;;;;;;;5.28;2.35;;;;;;;25.49;50.91;99616.12;1699716;83;21109;-64
2021/08/08 00:10:02;;;;;;;3.87;2.58;;;;;;;25.48;50.90;99618.59;1704580;83;21138;-65
2021/08/08 00:12:30;;;;;;;3.55;2.30;;;;;;;25.48;50.84;99617.23;1701380;84;21621;-65
2021/08/08 00:14:57;;;;;;;2.80;2.60;;;;;;;25.46;50.84;99624.29;1702349;83;21093;-65
2021/08/08 00:17:23;;;;;;;4.40;2.35;;;;;;;25.46;50.80;99624.84;1709708;83;21150;-63
2021/08/08 00:19:50;;;;;;;4.05;2.72;;;;;;;25.45;50.82;99624.00;1710402;83;21549;-64
2021/08/08 00:22:19;;;;;;;2.85;2.05;;;;;;;25.44;50.70;99622.38;1710564;83;21033;-64
2021/08/08 00:24:46;;;;;;;5.97;2.50;;;;;;;25.44;50.67;99622.38;1710335;83;21054;-64
2021/08/08 00:27:13;;;;;;;3.58;2.12;;;;;;;25.43;50.68;99619.37;1710444;83;21081;-67
2021/08/08 00:29:40;;;;;;;2.22;2.02;;;;;;;25.42;50.69;99615.05;1705440;83;21117;-66
2021/08/08 00:33:35;;;;;;;4.65;2.27;;;;;;;25.45;50.69;99617.20;1888004;75;22614;-64
2021/08/08 00:36:04;;;;;;;2.75;2.55;;;;;;;25.38;50.69;99622.63;1842252;77;21610;-65
2021/08/08 00:38:32;;;;;;;2.58;2.37;;;;;;;25.38;50.73;99611.75;1825179;77;22064;-65
2021/08/08 00:41:00;;;;;;;4.85;2.58;;;;;;;25.38;50.72;99619.39;1858673;77;21061;-64
2021/08/08 00:43:28;;;;;;;2.37;2.02;;;;;;;25.38;50.63;99622.63;1849753;77;21532;-64
2021/08/08 00:45:55;;;;;;;2.58;2.33;;;;;;;25.38;50.66;99621.27;1820993;77;21029;-65
2021/08/08 00:48:23;;;;;;;2.75;2.55;;;;;;;25.37;50.67;99623.17;1844562;77;20978;-64
2021/08/08 00:50:52;;;;;;;4.12;2.50;;;;;;;25.37;50.65;99625.09;1851231;77;21600;-64
2021/08/08 00:53:20;;;;;;;4.08;2.67;;;;;;;25.36;50.64;99620.72;1837414;77;20977;-63
2021/08/08 00:55:51;;;;;;;2.85;2.27;;;;;;;25.34;50.63;99622.34;1836066;77;21544;-65
2021/08/08 00:58:19;;;;;;;2.50;2.30;;;;;;;25.33;50.67;99623.45;1822659;77;21033;-63
2021/08/08 01:00:48;;;;;;;3.55;2.85;;;;;;;25.34;50.64;99621.53;1854617;77;21044;-64
2021/08/08 01:03:16;;;;;;;3.12;2.83;;;;;;;25.34;50.68;99620.17;1853645;77;21048;-64
2021/08/08 01:05:48;;;;;;;3.33;2.60;;;;;;;25.33;50.63;99611.21;1853698;77;21042;-64
2021/08/08 01:08:23;;;;;;;3.83;2.67;;;;;;;25.33;50.60;99618.56;1852712;77;20997;-64
2021/08/08 01:10:52;;;;;;;2.58;2.37;;;;;;;25.33;50.58;99621.28;1835382;77;20997;-63
2021/08/08 01:13:19;;;;;;;2.77;2.55;;;;;;;25.31;50.60;99630.50;1832171;77;20988;-64
2021/08/08 01:15:49;;;;;;;2.55;2.35;;;;;;;25.31;50.57;99643.29;1821183;77;21474;-66
2021/08/08 01:18:16;;;;;;;3.27;2.75;;;;;;;25.31;50.53;99640.57;1838984;77;21021;-63
2021/08/08 01:20:44;;;;;;;3.30;2.58;;;;;;;25.31;50.53;99648.17;1816273;77;20998;-64
2021/08/08 01:23:13;;;;;;;2.90;2.37;;;;;;;25.31;50.53;99637.30;1836903;77;21072;-64
2021/08/08 01:25:41;;;;;;;2.65;2.45;;;;;;;25.29;50.55;99627.23;1844301;77;21629;-64
2021/08/08 01:28:08;;;;;;;3.08;2.72;;;;;;;25.29;50.57;99640.83;1826499;77;21139;-65
2021/08/08 01:30:37;;;;;;;5.08;3.20;;;;;;;25.29;50.53;99646.27;1836802;77;21018;-62
2021/08/08 01:33:08;;;;;;;3.12;2.83;;;;;;;25.29;50.52;99650.90;1839453;77;21095;-65
2021/08/08 01:35:37;;;;;;;3.95;2.77;;;;;;;25.28;50.55;99650.61;1840065;77;21036;-63
2021/08/08 01:38:04;;;;;;;3.58;2.80;;;;;;;25.27;50.52;99655.23;1835873;77;21531;-64
2021/08/08 01:40:47;;;;;;;5.85;3.77;;;;;;;25.27;50.54;99660.67;1843369;77;21616;-64
2021/08/08 01:43:21;;;;;;;3.00;2.70;;;;;;;25.27;50.52;99657.95;1837395;77;21013;-64
2021/08/08 01:45:48;;;;;;;3.20;2.95;;;;;;;25.26;50.50;99657.67;1848491;77;21017;-64
2021/08/08 01:48:17;;;;;;;3.30;3.00;;;;;;;25.25;50.49;99661.48;1833005;77;21080;-66
2021/08/08 01:50:44;;;;;;;3.25;2.95;;;;;;;25.25;50.48;99653.88;1837896;77;21102;-65
2021/08/08 01:53:10;;;;;;;3.42;3.12;;;;;;;25.24;50.46;99647.61;1853645;77;21834;-65
2021/08/08 01:55:38;;;;;;;3.37;3.08;;;;;;;25.24;50.50;99650.32;1816087;77;21142;-65
2021/08/08 01:58:06;;;;;;;4.65;3.15;;;;;;;25.23;50.52;99647.34;1830278;77;21029;-65
2021/08/08 02:00:33;;;;;;;3.83;3.25;;;;;;;25.23;50.55;99645.17;1824417;77;21112;-65
2021/08/08 02:03:02;;;;;;;3.62;3.20;;;;;;;25.23;50.59;99641.10;1831863;77;21465;-65
2021/08/08 02:05:33;;;;;;;3.10;2.80;;;;;;;25.21;50.57;99652.20;1836574;77;21135;-66
2021/08/08 02:08:00;;;;;;;3.98;3.47;;;;;;;25.21;50.60;99650.03;1842329;77;21048;-65
2021/08/08 02:10:29;;;;;;;3.60;3.17;;;;;;;25.20;50.63;99647.03;1836844;77;21020;-64
2021/08/08 02:12:56;;;;;;;4.53;3.02;;;;;;;25.19;50.64;99650.30;1837455;77;21060;-65
2021/08/08 02:15:23;;;;;;;6.45;3.15;;;;;;;25.19;50.67;99656.25;1843140;77;21005;-65
2021/08/08 02:17:51;;;;;;;4.75;3.30;;;;;;;25.18;50.68;99651.91;1822155;77;21779;-66
2021/08/08 02:20:19;;;;;;;3.80;3.50;;;;;;;25.17;50.68;99657.06;1847395;77;21060;-66
2021/08/08 02:22:48;;;;;;;3.33;3.02;;;;;;;25.17;50.71;99659.27;1846713;77;21025;-65
2021/08/08 02:25:18;;;;;;;4.58;3.60;;;;;;;25.17;50.72;99658.42;1832832;77;21088;-66
2021/08/08 02:27:45;;;;;;;4.37;3.67;;;;;;;25.15;50.68;99656.00;1853929;77;21514;-67
2021/08/08 02:30:16;;;;;;;3.67;3.37;;;;;;;25.15;50.70;99657.87;1834656;75;21269;-66
2021/08/08 02:32:42;;;;;;;3.47;3.17;;;;;;;25.15;50.67;99662.79;1843068;77;21537;-64
2021/08/08 02:35:09;;;;;;;3.60;3.30;;;;;;;25.14;50.64;99660.33;1830599;77;21028;-64
2021/08/08 02:37:38;;;;;;;3.58;3.27;;;;;;;25.15;50.63;99664.67;1849039;77;21005;-63
2021/08/08 02:40:08;;;;;;;5.10;3.65;;;;;;;25.15;50.64;99663.31;1838398;77;21769;-64
2021/08/08 02:42:35;;;;;;;4.37;3.52;;;;;;;25.14;50.63;99662.50;1839395;77;21077;-64
2021/08/08 02:45:05;;;;;;;5.33;3.90;;;;;;;25.14;50.61;99661.14;1844129;77;21001;-64
2021/08/08 02:47:32;;;;;;;3.83;3.52;;;;;;;25.15;50.61;99667.39;1853210;77;21053;-64
2021/08/08 02:50:02;;;;;;;4.42;3.75;;;;;;;25.14;50.58;99659.78;1841985;77;21025;-65
2021/08/08 02:52:28;;;;;;;4.75;3.25;;;;;;;25.14;50.57;99662.50;1839758;76;21033;-64
2021/08/08 02:54:57;;;;;;;3.77;3.42;;;;;;;25.14;50.56;99662.50;1835601;77;21143;-65
2021/08/08 02:57:24;;;;;;;4.40;3.65;;;;;;;25.15;50.50;99668.23;1839976;77;21647;-64
2021/08/08 02:59:52;;;;;;;3.98;3.33;;;;;;;25.16;50.45;99674.47;1837703;77;20982;-64
2021/08/08 03:02:18;;;;;;;3.60;3.30;;;;;;;25.17;50.37;99664.70;1830635;77;21084;-63
2021/08/08 03:04:45;;;;;;;4.22;3.83;;;;;;;25.18;50.24;99658.16;1853445;77;20982;-65
2021/08/08 03:07:12;;;;;;;4.92;3.60;;;;;;;25.18;50.22;99661.43;1830428;77;21162;-66
2021/08/08 03:09:40;;;;;;;3.90;3.50;;;;;;;25.18;50.17;99667.67;1848416;77;21493;-65
2021/08/08 03:12:08;;;;;;;4.25;3.87;;;;;;;25.18;50.13;99670.94;1837085;77;20981;-64
2021/08/08 03:14:37;;;;;;;4.17;3.77;;;;;;;25.18;50.11;99676.38;1839017;77;21492;-65
2021/08/08 03:17:05;;;;;;;5.47;4.10;;;;;;;25.17;50.10;99678.29;1833225;77;21053;-66
2021/08/08 03:19:34;;;;;;;4.28;3.87;;;;;;;25.18;50.04;99671.75;1846485;77;21041;-65
2021/08/08 03:22:02;;;;;;;5.87;4.78;;;;;;;25.18;50.00;99674.47;1842524;77;21080;-63
2021/08/08 03:24:29;;;;;;;4.15;3.75;;;;;;;25.19;49.99;99676.13;1845540;77;21006;-65
2021/08/08 03:26:56;;;;;;;5.25;4.75;;;;;;;25.20;49.97;99672.85;1854902;77;21076;-64
2021/08/08 03:29:23;;;;;;;4.50;4.08;;;;;;;25.20;49.96;99673.66;1841630;77;20997;-64
2021/08/08 03:31:50;;;;;;;5.60;4.30;;;;;;;25.19;49.94;99667.97;1829935;77;21126;-64
2021/08/08 03:34:17;;;;;;;4.70;4.20;;;;;;;25.20;49.94;99669.58;1827397;77;21025;-63
2021/08/08 03:36:44;;;;;;;4.70;4.00;;;;;;;25.21;49.88;99667.16;1829783;77;21477;-64
2021/08/08 03:39:11;;;;;;;5.17;4.05;;;;;;;25.22;49.85;99670.16;1829254;77;21032;-64
2021/08/08 03:41:38;;;;;;;5.35;4.28;;;;;;;25.22;49.88;99671.52;1838384;77;21123;-64
2021/08/08 03:44:07;;;;;;;5.50;3.87;;;;;;;25.23;49.86;99679.16;1829685;77;21072;-64
2021/08/08 03:46:34;;;;;;;4.53;4.00;;;;;;;25.22;49.86;99672.88;1828620;77;20977;-64
2021/08/08 03:49:02;;;;;;;4.78;3.90;;;;;;;25.23;49.90;99675.08;1833601;77;21244;-64
2021/08/08 03:51:28;;;;;;;4.47;3.98;;;;;;;25.24;49.92;99678.06;1839889;77;21537;-65
2021/08/08 03:53:55;;;;;;;4.20;3.80;;;;;;;25.24;49.97;99681.59;1836013;77;20997;-63
2021/08/08 03:56:22;;;;;;;5.42;4.90;;;;;;;25.25;49.96;99679.16;1827046;77;21112;-64
2021/08/08 03:58:49;;;;;;;5.65;3.92;;;;;;;25.26;49.93;99678.05;1832462;77;21100;-65
2021/08/08 04:01:16;;;;;;;5.37;4.15;;;;;;;25.28;49.92;99682.71;1839503;77;21005;-64
2021/08/08 04:03:43;;;;;;;5.90;4.60;;;;;;;25.30;49.97;99679.70;1822915;77;21005;-66
2021/08/08 04:06:10;;;;;;;4.37;3.98;;;;;;;25.32;49.96;99678.89;1817161;77;21025;-65
2021/08/08 04:08:37;;;;;;;4.87;3.87;;;;;;;25.35;49.88;99678.92;1841214;77;21057;-65
2021/08/08 04:11:12;;;;;;;4.47;4.08;;;;;;;25.38;49.81;99677.01;1826679;77;22040;-64
2021/08/08 04:13:39;;;;;;;4.33;3.92;;;;;;;25.39;49.79;99678.11;1832473;77;21061;-64
2021/08/08 04:16:05;;;;;;;5.37;3.87;;;;;;;25.42;49.72;99688.98;1844680;77;21023;-63
2021/08/08 04:18:35;;;;;;;4.08;3.70;;;;;;;25.44;49.73;99691.73;1822438;77;21036;-65
2021/08/08 04:21:02;;;;;;;8.95;4.58;;;;;;;25.46;49.72;99695.00;1833809;77;21111;-64
2021/08/08 04:23:28;;;;;;;4.60;4.20;;;;;;;25.47;49.70;99695.80;1838951;77;21060;-64
2021/08/08 04:25:55;;;;;;;6.37;4.05;;;;;;;25.49;49.69;99700.43;1835146;77;21141;-64
2021/08/08 04:28:22;;;;;;;4.72;3.80;;;;;;;25.50;49.67;99695.28;1836797;77;20990;-65
2021/08/08 04:30:49;;;;;;;4.60;4.08;;;;;;;25.53;49.61;99693.91;1829319;77;20993;-64
2021/08/08 04:33:16;;;;;;;5.12;4.00;;;;;;;25.54;49.55;99692.30;1834926;77;21136;-65
2021/08/08 04:35:43;;;;;;;4.97;4.00;;;;;;;25.57;49.51;99687.66;1842443;77;21534;-64
2021/08/08 04:38:10;;;;;;;6.70;3.50;;;;;;;25.60;49.54;99687.69;1834504;77;21096;-64
2021/08/08 04:40:38;;;;;;;4.10;3.67;;;;;;;25.61;49.65;99681.98;1855308;77;21048;-65
2021/08/08 04:43:05;;;;;;;3.75;3.45;;;;;;;25.65;49.65;99682.23;1839675;77;21224;-64
2021/08/08 04:45:33;;;;;;;4.22;3.87;;;;;;;25.66;49.63;99679.80;1846840;77;21139;-65
2021/08/08 04:47:59;;;;;;;3.50;3.20;;;;;;;25.68;49.57;99674.36;1851106;77;21044;-65
2021/08/08 04:50:27;;;;;;;6.12;3.75;;;;;;;25.71;49.53;99687.98;1836630;77;21071;-65
2021/08/08 04:52:53;;;;;;;3.77;3.37;;;;;;;25.73;49.46;99688.53;1784904;80;21081;-66
2021/08/08 04:55:20;;;;;;;3.77;3.40;;;;;;;25.75;49.43;99685.52;1807212;78;21100;-64
2021/08/08 04:57:48;;;;;;;3.67;3.37;;;;;;;25.77;49.31;99681.98;1812465;78;21134;-65
2021/08/08 05:00:17;;;;;;;9.23;8.30;;;;;;;25.80;49.18;99692.34;1816036;78;21105;-64
2021/08/08 05:02:46;;;;;;;3.90;3.42;;;;;;;25.81;49.17;99696.70;1789678;78;21057;-65
2021/08/08 05:05:14;;;;;;;4.47;3.20;;;;;;;25.82;49.19;99699.13;1778138;79;21030;-65
2021/08/08 05:07:41;;;;;;;3.67;3.35;;;;;;;25.85;49.07;99699.16;1788700;80;21478;-64
2021/08/08 05:10:11;;;;;;;3.75;3.45;;;;;;;25.86;49.01;99700.25;1809856;79;21658;-66
2021/08/08 05:12:38;;;;;;;3.90;3.20;;;;;;;25.86;48.94;99699.41;1794868;79;21073;-65
2021/08/08 05:15:05;;;;;;;4.45;3.50;;;;;;;25.90;48.91;99703.22;1797636;79;21069;-70
2021/08/08 05:17:32;;;;;;;5.05;3.37;;;;;;;25.92;49.16;99702.44;1802062;79;21026;-69
2021/08/08 05:19:59;;;;;;;4.65;3.67;;;;;;;25.94;49.70;99703.02;1811724;79;21068;-68
2021/08/08 05:22:26;;;;;;;5.95;3.50;;;;;;;25.95;50.13;99698.38;1804915;78;21095;-69
2021/08/08 05:24:53;;;;;;;10.10;3.27;;;;;;;25.96;50.06;99698.11;1819176;78;21520;-67
2021/08/08 05:27:20;;;;;;;4.53;3.67;;;;;;;25.95;50.44;99704.63;1802426;79;21045;-67
2021/08/08 05:29:47;;;;;;;5.42;3.37;;;;;;;25.96;50.44;99704.92;1797390;79;21070;-66
2021/08/08 05:32:14;;;;;;;4.97;3.35;;;;;;;25.97;50.49;99702.45;1793134;79;21591;-69
2021/08/08 05:34:41;;;;;;;4.72;3.02;;;;;;;25.99;50.42;99697.55;1761215;80;21568;-66
2021/08/08 05:37:09;;;;;;;4.67;2.92;;;;;;;26.01;50.32;99706.27;1771003;80;21034;-66
2021/08/08 05:39:35;;;;;;;4.45;2.80;;;;;;;26.03;50.18;99701.36;1791473;80;21073;-67
2021/08/08 05:42:02;;;;;;;6.30;3.40;;;;;;;26.05;50.05;99704.63;1811928;79;21049;-67
2021/08/08 05:44:29;;;;;;;3.22;2.92;;;;;;;26.08;49.96;99707.38;1799890;79;21002;-64
2021/08/08 05:46:56;;;;;;;5.22;3.08;;;;;;;26.11;49.95;99712.80;1816056;79;21147;-67
2021/08/08 05:49:22;;;;;;;5.87;2.85;;;;;;;26.13;49.93;99710.63;1780649;79;21038;-65
2021/08/08 05:51:50;;;;;;;6.10;2.98;;;;;;;26.15;49.80;99707.09;1791119;79;21673;-66
2021/08/08 05:54:16;;;;;;;4.53;3.20;;;;;;;26.16;49.64;99705.45;1804851;79;21046;-67
2021/08/08 05:56:43;;;;;;;3.58;2.50;;;;;;;26.18;49.44;99707.36;1797115;79;21100;-67
2021/08/08 05:59:11;;;;;;;3.45;2.70;;;;;;;26.21;49.31;99711.44;1806973;79;21177;-66
2021/08/08 06:01:38;;;;;;;3.90;2.90;;;;;;;26.21;49.16;99708.72;1796125;79;21094;-68
2021/08/08 06:04:05;;;;;;;6.30;3.33;;;;;;;26.24;49.06;99709.55;1806958;79;21034;-65
2021/08/08 06:06:32;;;;;;;6.65;3.67;;;;;;;26.27;48.77;99711.18;1804317;79;21068;-66
2021/08/08 06:08:59;;;;;;;8.40;3.80;;;;;;;26.27;48.62;99711.73;1783642;79;21054;-67
2021/08/08 06:11:26;;;;;;;6.65;3.37;;;;;;;26.27;48.91;99717.98;1813815;79;21203;-65
2021/08/08 06:13:52;;;;;;;6.08;3.72;;;;;;;26.29;48.82;99716.36;1783640;79;21048;-66
2021/08/08 06:16:19;;;;;;;6.75;3.87;;;;;;;26.30;48.87;99719.34;1795278;78;21089;-65
2021/08/08 06:18:47;;;;;;;5.53;3.72;;;;;;;26.33;48.50;99718.80;1784781;79;21049;-66
2021/08/08 06:21:14;;;;;;;4.90;2.80;;;;;;;26.36;48.28;99723.69;1782155;79;21084;-66
2021/08/08 06:23:43;;;;;;;3.58;2.50;;;;;;;26.37;48.16;99728.61;1813240;78;22354;-65
2021/08/08 06:26:10;;;;;;;3.52;2.67;;;;;;;26.40;48.00;99726.69;1786547;80;22322;-67
2021/08/08 06:28:36;;;;;;;4.25;2.95;;;;;;;26.43;48.15;99724.23;1798620;78;21037;-66
2021/08/08 06:31:03;;;;;;;2.85;2.65;;;;;;;26.45;48.09;99717.16;1777996;79;21128;-66
2021/08/08 06:33:30;;;;;;;2.90;2.70;;;;;;;26.47;47.82;99725.88;1781557;79;21114;-64
2021/08/08 06:35:58;;;;;;;3.62;2.35;;;;;;;26.50;47.66;99729.39;1761224;79;21130;-68
2021/08/08 06:38:26;;;;;;;2.72;2.50;;;;;;;26.51;47.49;99731.04;1746087;79;21003;-66
2021/08/08 06:40:53;;;;;;;3.67;2.77;;;;;;;26.53;47.45;99734.30;1766094;79;21088;-66
2021/08/08 06:43:20;;;;;;;2.85;2.55;;;;;;;26.56;47.13;99731.05;1738110;79;21037;-67
2021/08/08 06:45:46;;;;;;;2.90;2.47;;;;;;;26.58;47.11;99729.38;1756579;79;21031;-66
2021/08/08 06:48:13;;;;;;;2.90;2.45;;;;;;;26.60;46.89;99728.63;1760410;79;21113;-65
2021/08/08 06:50:41;;;;;;;3.27;2.22;;;;;;;26.62;46.92;99736.78;1748856;79;21517;-68
2021/08/08 06:53:09;;;;;;;4.40;2.67;;;;;;;26.63;46.74;99743.84;1768566;79;21041;-66
2021/08/08 06:55:36;;;;;;;3.35;2.67;;;;;;;26.65;46.60;99748.47;1765828;79;21027;-66
2021/08/08 06:58:02;;;;;;;3.62;2.70;;;;;;;26.68;46.38;99745.21;1768579;79;21036;-65
2021/08/08 07:00:28;;;;;;;3.05;2.52;;;;;;;26.71;46.46;99745.75;1745687;79;21159;-65
2021/08/08 07:02:55;;;;;;;2.67;2.47;;;;;;;26.71;46.22;99743.84;1766654;79;21085;-66
2021/08/08 07:05:22;;;;;;;2.65;2.35;;;;;;;26.73;46.07;99744.93;1757691;79;21057;-66
2021/08/08 07:07:49;;;;;;;3.35;2.55;;;;;;;26.73;46.04;99741.65;1772898;79;21573;-66
2021/08/08 07:10:16;;;;;;;4.42;2.55;;;;;;;26.75;45.98;99744.91;1769228;79;22113;-69
2021/08/08 07:12:43;;;;;;;2.75;2.37;;;;;;;26.77;46.04;99749.57;1768070;79;21603;-66
2021/08/08 07:15:10;;;;;;;3.25;2.58;;;;;;;26.79;45.80;99752.00;1770494;79;21154;-67
2021/08/08 07:17:38;;;;;;;2.80;2.60;;;;;;;26.80;45.64;99752.28;1765433;79;21068;-57
2021/08/08 07:20:06;;;;;;;4.12;2.77;;;;;;;26.81;45.35;99753.91;1767481;79;21605;-68
2021/08/08 07:22:33;;;;;;;2.95;2.65;;;;;;;26.81;45.17;99746.56;1768918;79;21097;-66
2021/08/08 07:25:00;;;;;;;2.72;2.50;;;;;;;26.81;45.22;99746.56;1760807;79;21816;-65
2021/08/08 07:27:26;;;;;;;3.02;2.62;;;;;;;26.82;45.08;99749.55;1760813;79;21854;-67
2021/08/08 07:29:54;;;;;;;3.92;2.98;;;;;;;26.82;45.30;99750.91;1769553;79;21048;-66
2021/08/08 07:32:21;;;;;;;3.35;2.62;;;;;;;26.84;45.21;99755.53;1772197;79;21096;-67
2021/08/08 07:34:47;;;;;;;3.83;3.00;;;;;;;26.86;45.23;99760.16;1779486;79;21069;-67
2021/08/08 07:37:14;;;;;;;3.65;2.72;;;;;;;26.88;45.10;99762.06;1788770;79;21113;-66
2021/08/08 07:39:40;;;;;;;5.10;2.90;;;;;;;26.87;44.61;99764.53;1785306;79;21534;-67
2021/08/08 07:42:07;;;;;;;4.50;3.58;;;;;;;26.87;44.62;99771.91;1790328;79;21088;-66
2021/08/08 07:44:33;;;;;;;3.12;2.83;;;;;;;26.86;44.71;99773.78;1788045;79;21542;-70
2021/08/08 07:47:01;;;;;;;4.97;2.95;;;;;;;26.88;45.04;99763.98;1789500;79;21080;-69
2021/08/08 07:49:27;;;;;;;5.03;2.75;;;;;;;26.90;44.98;99765.07;1790244;79;21111;-69
2021/08/08 07:51:54;;;;;;;3.00;2.75;;;;;;;26.92;44.89;99768.34;1788090;79;21080;-71
2021/08/08 07:54:21;;;;;;;3.62;2.40;;;;;;;26.94;44.87;99765.59;1785332;79;21039;-70
2021/08/08 07:56:50;;;;;;;3.65;2.87;;;;;;;26.95;44.53;99764.52;1794318;79;21025;-68
2021/08/08 07:59:18;;;;;;;2.77;2.55;;;;;;;26.96;44.48;99765.33;1789749;79;21591;-65
2021/08/08 08:01:44;;;;;;;4.95;2.62;;;;;;;26.97;44.55;99768.33;1769335;79;21781;-64
2021/08/08 08:04:11;;;;;;;3.05;2.75;;;;;;;26.98;44.55;99773.48;1775659;79;21038;-64
2021/08/08 08:06:38;;;;;;;2.80;2.55;;;;;;;27.01;44.44;99780.31;1776761;79;21124;-65
2021/08/08 08:09:05;;;;;;;5.05;2.50;;;;;;;27.02;44.43;99771.87;1774097;79;21026;-63
2021/08/08 08:11:32;;;;;;;4.17;2.60;;;;;;;27.05;44.41;99771.85;1779746;79;21006;-64
2021/08/08 08:13:58;;;;;;;6.17;2.35;;;;;;;27.08;44.35;99779.45;1783443;79;21089;-64
2021/08/08 08:16:25;;;;;;;2.60;2.40;;;;;;;27.11;44.23;99775.38;1774215;79;21044;-64
2021/08/08 08:18:53;;;;;;;2.70;2.50;;;;;;;27.12;44.32;99769.66;1797653;79;21014;-66
2021/08/08 08:21:20;;;;;;;2.70;2.25;;;;;;;27.15;44.12;99765.55;1790698;79;21089;-64
2021/08/08 08:23:46;;;;;;;2.70;2.20;;;;;;;27.17;43.65;99765.53;1776864;79;21052;-63
2021/08/08 08:26:13;;;;;;;6.10;2.83;;;;;;;27.20;43.68;99762.82;1793794;79;21799;-64
2021/08/08 08:28:39;;;;;;;3.20;2.60;;;;;;;27.22;43.78;99758.71;1779000;79;21014;-64
2021/08/08 08:31:09;;;;;;;3.25;2.92;;;;;;;27.24;43.81;99770.19;1772784;79;21078;-72
2021/08/08 08:33:37;;;;;;;7.05;2.70;;;;;;;27.26;43.68;99766.63;1794240;79;21030;-70
2021/08/08 08:36:05;;;;;;;4.05;2.67;;;;;;;27.28;43.94;99767.72;1782695;79;21056;-66
2021/08/08 08:38:32;;;;;;;4.70;2.12;;;;;;;27.30;43.54;99768.26;1763472;81;21191;-67
2021/08/08 08:40:58;;;;;;;5.40;2.45;;;;;;;27.32;42.93;99761.17;1763445;81;21129;-68
2021/08/08 08:43:26;;;;;;;2.83;2.42;;;;;;;27.32;42.66;99759.80;1763473;81;21045;-67
2021/08/08 08:45:53;;;;;;;2.95;2.60;;;;;;;27.32;42.23;99755.72;1760773;81;21517;-67
2021/08/08 08:48:20;;;;;;;3.55;2.37;;;;;;;27.31;41.88;99749.97;1781076;80;21524;-67
2021/08/08 08:50:54;;;;;;;3.17;2.17;;;;;;;27.31;41.87;99746.69;1774934;80;21793;-68
2021/08/08 08:53:22;;;;;;;3.08;2.42;;;;;;;27.32;41.70;99744.80;1760222;80;21555;-66
2021/08/08 08:55:50;;;;;;;3.37;2.50;;;;;;;27.33;41.71;99745.05;1756559;80;20999;-68
2021/08/08 08:58:18;;;;;;;4.55;2.00;;;;;;;27.34;40.85;99749.43;1762137;80;21066;-71
2021/08/08 09:00:46;;;;;;;2.55;1.98;;;;;;;27.34;40.54;99748.06;1717695;80;21026;-71
2021/08/08 09:03:13;;;;;;;3.02;2.72;;;;;;;27.34;40.31;99743.42;1765254;80;21073;-70
2021/08/08 09:05:40;;;;;;;3.33;2.27;;;;;;;27.35;40.65;99734.16;1752991;80;21095;-67
2021/08/08 09:08:08;;;;;;;3.15;2.30;;;;;;;27.37;40.82;99732.48;1751807;80;21030;-72
2021/08/08 09:10:36;;;;;;;2.62;2.20;;;;;;;27.39;40.84;99735.22;1755236;80;21078;-70
2021/08/08 09:13:05;;;;;;;2.60;2.33;;;;;;;27.42;41.36;99736.01;1752251;80;21101;-71
2021/08/08 09:15:37;;;;;;;3.52;2.10;;;;;;;27.45;41.08;99733.30;1753856;80;21061;-70
2021/08/08 09:18:21;;;;;;;3.15;2.50;;;;;;;27.48;40.91;99736.00;1769987;80;21205;-68
2021/08/08 09:20:55;;;;;;;3.08;2.40;;;;;;;27.51;40.41;99725.34;1756930;80;21050;-72
2021/08/08 09:23:22;;;;;;;2.75;2.47;;;;;;;27.54;40.19;99730.22;1753039;80;21038;-70
2021/08/08 09:25:56;;;;;;;2.90;2.60;;;;;;;27.56;40.76;99722.56;1735865;80;21025;-70
2021/08/08 09:28:27;;;;;;;;;;;;;;;27.60;40.45;99714.11;1759120;80;21519;-70
2021/08/08 09:30:54;;;;;;;9.50;8.30;;;;;;;27.67;40.58;99718.44;1751586;80;20175;-68
2021/08/08 09:33:21;;;;;;;9.68;8.68;;;;;;;27.64;40.37;99719.80;1751692;80;21046;-69
2021/08/08 09:35:53;;;;;;;6.00;4.45;;;;;;;27.70;40.68;99718.69;1774426;79;21064;-68
2021/08/08 09:38:20;;;;;;;5.85;3.40;;;;;;;27.76;40.12;99715.38;1771265;80;21494;-67
2021/08/08 09:41:01;;;;;;;3.50;2.52;;;;;;;27.82;40.68;99714.25;1778898;80;21035;-67
2021/08/08 09:43:29;;;;;;;4.37;2.72;;;;;;;27.85;40.01;99718.59;1765941;79;21055;-71
2021/08/08 09:45:56;;;;;;;2.85;2.65;;;;;;;27.92;39.67;99722.39;1760538;80;21061;-61
2021/08/08 09:48:36;;;;;;;4.85;2.95;;;;;;;27.98;39.82;99721.25;1782506;80;21104;-62
2021/08/08 09:51:06;;;;;;;3.02;2.72;;;;;;;28.03;39.48;99710.30;1749336;81;21088;-61
2021/08/08 09:53:33;;;;;;;5.20;2.85;;;;;;;28.11;39.50;99712.16;1766344;80;21545;-69
2021/08/08 09:55:59;;;;;;;7.17;2.70;;;;;;;28.17;39.31;99713.19;1789987;80;21084;-68
2021/08/08 09:58:27;;;;;;;3.55;2.80;;;;;;;28.23;39.62;99712.03;1744380;80;21048;-67
2021/08/08 10:00:58;;;;;;;4.12;3.50;;;;;;;28.30;39.09;99708.16;1761123;80;21534;-67
2021/08/08 10:03:24;;;;;;;2.65;2.45;;;;;;;28.36;38.80;99699.64;1787682;80;21021;-67
2021/08/08 10:05:54;;;;;;;3.25;2.45;;;;;;;28.43;38.34;99703.39;1761636;79;22071;-68
2021/08/08 10:08:22;;;;;;;4.22;2.50;;;;;;;28.49;37.28;99703.63;1780228;80;21572;-67
2021/08/08 10:10:53;;;;;;;3.00;2.75;;;;;;;28.56;36.89;99703.31;1770278;79;21077;-68
2021/08/08 10:13:41;;;;;;;3.42;2.55;;;;;;;28.62;37.09;99708.42;1755920;80;21196;-68
2021/08/08 10:16:10;;;;;;;3.77;2.37;;;;;;;28.69;36.86;99710.02;1778320;79;21052;-68
2021/08/08 10:18:41;;;;;;;3.60;2.15;;;;;;;28.77;36.89;99711.55;1757045;81;21992;-68
2021/08/08 10:21:09;;;;;;;2.40;2.10;;;;;;;28.82;36.47;99707.41;1760612;79;21093;-68
2021/08/08 10:23:36;;;;;;;2.25;2.05;;;;;;;28.89;36.66;99712.52;1783420;80;21565;-68
2021/08/08 10:26:03;;;;;;;4.70;2.50;;;;;;;28.97;36.96;99719.27;1771807;80;21065;-67
2021/08/08 10:28:29;;;;;;;3.58;2.67;;;;;;;29.04;36.69;99718.93;1776923;80;21061;-68
2021/08/08 10:31:00;;;;;;;3.92;2.42;;;;;;;29.10;36.74;99718.56;1767794;80;21115;-67
2021/08/08 10:33:27;;;;;;;2.98;2.20;;;;;;;29.15;36.40;99715.81;1760605;80;21608;-67
2021/08/08 10:35:53;;;;;;;3.05;2.25;;;;;;;29.22;35.21;99718.17;1771843;80;21526;-68
2021/08/08 10:38:20;;;;;;;2.75;2.20;;;;;;;29.29;34.70;99726.05;1783329;80;21113;-71
2021/08/08 10:40:47;;;;;;;3.95;2.27;;;;;;;29.36;34.86;99724.58;1783494;80;21106;-71
2021/08/08 10:43:34;;;;;;;2.67;2.12;;;;;;;29.41;34.96;99719.02;1783690;80;21819;-71
2021/08/08 10:46:09;;;;;;;2.72;2.45;;;;;;;29.47;34.52;99719.77;1782006;80;21000;-72
2021/08/08 10:48:40;;;;;;;2.47;2.27;;;;;;;29.54;34.04;99722.16;1783302;80;21077;-68
2021/08/08 10:51:24;;;;;;;2.45;2.25;;;;;;;29.58;34.03;99722.62;1779426;80;21034;-67
2021/08/08 10:54:03;;;;;;;2.52;2.17;;;;;;;29.66;34.22;99725.25;1781170;80;21045;-71
2021/08/08 10:56:45;;;;;;;2.83;2.58;;;;;;;29.70;33.80;99721.38;1783492;80;22109;-72
2021/08/08 10:59:20;;;;;;;3.62;2.12;;;;;;;29.77;33.96;99719.13;1783520;80;21011;-71
2021/08/08 11:02:09;;;;;;;5.50;2.30;;;;;;;29.83;34.04;99718.49;1772752;80;21544;-71
2021/08/08 11:04:36;;;;;;;3.65;2.50;;;;;;;29.87;33.70;99709.38;1753693;80;21543;-72
2021/08/08 11:07:05;;;;;;;3.42;2.25;;;;;;;29.93;32.44;99712.28;1783389;80;21068;-71
2021/08/08 11:09:34;;;;;;;2.60;2.40;;;;;;;30.03;31.88;99720.09;1783828;80;21062;-71
2021/08/08 11:12:01;;;;;;;3.58;2.30;;;;;;;30.12;31.58;99716.94;1782674;80;21049;-71
2021/08/08 11:14:28;;;;;;;2.35;2.15;;;;;;;30.21;31.63;99722.00;1783485;80;21038;-71
2021/08/08 11:17:01;;;;;;;2.50;2.30;;;;;;;30.29;32.15;99724.58;1783225;80;21045;-72
2021/08/08 11:19:40;;;;;;;3.35;2.37;;;;;;;30.36;32.25;99722.30;1783805;80;22077;-71
2021/08/08 11:22:13;;;;;;;3.15;2.30;;;;;;;30.39;31.90;99713.49;1773051;80;21079;-72
2021/08/08 11:24:43;;;;;;;2.45;2.10;;;;;;;30.45;31.58;99716.39;1783910;80;21015;-71
2021/08/08 11:27:10;;;;;;;2.40;2.20;;;;;;;30.51;30.95;99715.75;1772988;80;21033;-71
2021/08/08 11:29:37;;;;;;;2.40;2.20;;;;;;;30.58;29.85;99712.87;1777927;80;21085;-71
2021/08/08 11:32:06;;;;;;;3.67;2.33;;;;;;;30.70;29.77;99715.68;1791592;80;21623;-71
2021/08/08 11:34:33;;;;;;;2.50;2.30;;;;;;;30.80;30.64;99720.16;1741007;81;21136;-72
2021/08/08 11:37:00;;;;;;;3.83;2.25;;;;;;;30.83;31.03;99714.88;1791337;80;21080;-68
2021/08/08 11:39:33;;;;;;;3.70;2.42;;;;;;;30.89;30.62;99715.06;1791662;80;21045;-69